Fountain City, Wisconsin
Current Conditions -  °F | °C
As of 6:15 PM on Sunday 25 Jan 2015 (Local Time) from KONA Reporting Station
Clear Clear  
Wind Chill: 23°   Ceiling: Unl
Heat Index: 23°   Visibility: 10mi
Dew Point: 16°   Wind: 0mph
Humidity: 74%   Direction: NA
Pressure: 30.07"   Gusts: NA
Location:  44.13°N, 91.72°W
Report Text: KONA 260015Z AUTO 00000KT 10SM CLR M05/M09 A3007 RMK AO2
Loading
Personal Weather Stations






























Interactive Weather Map New forecast layout! Learn more

10-Day Weather Forecast

Advertisements
Track Severe Weather on mobile